CYDF/YDF METAR and TAF weather

Enter ICAO airport designator
Station Type Date Time Source
CYDF METAR 2020/09/19 01:00 UTC NOAA

CYDF 190100Z 03006KT 15SM OVC110 09/05 A2996 RMK AC8 SLP148


Station Type Date Time Source
CYDF Decoded METAR 2020/09/19 01:00 UTC NOAA

Deer Lake, Nfld., Canada (CYDF) 49-13N 057-24W 22M
Sep 18, 2020 - 09:00 PM EDT / 2020.09.19 0100 UTC
Wind: from the NNE (030 degrees) at 7 MPH (6 KT):0
Visibility: 15 mile(s):0
Sky conditions: overcast
Temperature: 48 F (9 C)
Dew Point: 41 F (5 C)
Relative Humidity: 75%
Pressure (altimeter): 29.96 in. Hg (1014 hPa)
ob: CYDF 190100Z 03006KT 15SM OVC110 09/05 A2996 RMK AC8 SLP148
cycle: 1

Station Type Date Time Source
CYDF TAF 2020/09/18 20:42 UTC NOAA

TAF CYDF 181938Z 1820/1908 VRB03KT P6SM BKN090
FM190000 02006KT P6SM SCT020 BKN080 BKN120
FM190200 02006KT P6SM BKN030
TEMPO 1902/1908 BKN020
RMK NXT FCST BY 190200Z

Example: see airport list